Time;durP1;ratioP1;P1;durP2;ratioP2;P2;SDS_P1;SDS_P2;PMS_P1;PMS_P2;Temp;Humidity;BMP_temperature;BMP_pressure;BME280_temperature;BME280_humidity;BME280_pressure;Samples;Min_cycle;Max_cycle;Signal;HPM_P1;HPM_P2
2024/01/13 00:01:42;;;;;;;21.80;10.93;;;;;;;;;;4995164;28;20214;-75
2024/01/13 00:04:07;;;;;;;16.23;10.10;;;;;;;;;;4989146;28;20207;-74
2024/01/13 00:06:33;;;;;;;20.97;10.83;;;;;;;;;;4990410;28;20231;-75
2024/01/13 00:08:58;;;;;;;19.70;12.20;;;;;;;;;;4996296;28;20180;-74
2024/01/13 00:11:23;;;;;;;22.03;11.43;;;;;;;;;;4987667;28;20436;-75
2024/01/13 00:13:48;;;;;;;17.73;9.90;;;;;;;;;;4989908;28;20248;-75
2024/01/13 00:16:13;;;;;;;18.90;10.83;;;;;;;;;;4998173;28;20195;-75
2024/01/13 00:18:39;;;;;;;16.77;9.70;;;;;;;;;;5008941;28;20200;-74
2024/01/13 00:21:04;;;;;;;13.53;7.67;;;;;;;;;;4997709;28;20238;-75
2024/01/13 00:23:29;;;;;;;17.23;10.57;;;;;;;;;;4989613;28;20244;-74
2024/01/13 00:25:54;;;;;;;20.63;11.00;;;;;;;;;;4988204;28;20176;-74
2024/01/13 00:28:19;;;;;;;19.57;11.10;;;;;;;;;;4991634;28;20274;-74
2024/01/13 00:30:44;;;;;;;20.27;11.60;;;;;;;;;;4995404;28;20180;-75
2024/01/13 00:33:10;;;;;;;21.87;11.30;;;;;;;;;;4992769;28;20195;-75
2024/01/13 00:35:36;;;;;;;20.43;11.03;;;;;;;;;;4993066;28;20184;-74
2024/01/13 00:38:01;;;;;;;22.83;13.40;;;;;;;;;;4993942;28;20195;-75
2024/01/13 00:40:26;;;;;;;22.73;12.50;;;;;;;;;;4986858;28;20183;-74
2024/01/13 00:42:51;;;;;;;18.90;11.10;;;;;;;;;;5002477;28;20271;-74
2024/01/13 00:45:17;;;;;;;20.63;11.97;;;;;;;;;;4996768;28;20176;-75
2024/01/13 00:47:42;;;;;;;22.47;12.07;;;;;;;;;;4999013;28;20184;-75
2024/01/13 00:50:08;;;;;;;23.30;11.73;;;;;;;;;;4995458;28;20278;-75
2024/01/13 00:52:33;;;;;;;22.90;12.80;;;;;;;;;;5000692;28;20176;-75
2024/01/13 00:54:58;;;;;;;21.47;12.97;;;;;;;;;;4995804;28;20274;-75
2024/01/13 00:57:24;;;;;;;25.47;15.57;;;;;;;;;;5018651;28;20278;-74
2024/01/13 00:59:49;;;;;;;32.37;15.97;;;;;;;;;;4996731;28;20182;-75
2024/01/13 01:02:14;;;;;;;26.00;15.37;;;;;;;;;;4998186;28;20192;-75
2024/01/13 01:04:39;;;;;;;23.97;15.50;;;;;;;;;;5006480;28;20189;-74
2024/01/13 01:07:04;;;;;;;26.73;15.53;;;;;;;;;;5000949;28;20173;-75
2024/01/13 01:09:30;;;;;;;34.87;19.40;;;;;;;;;;4992445;28;20204;-75
2024/01/13 01:11:55;;;;;;;31.67;18.73;;;;;;;;;;4998287;28;20267;-74
2024/01/13 01:14:20;;;;;;;36.80;19.00;;;;;;;;;;4993365;28;20188;-74
2024/01/13 01:16:45;;;;;;;34.63;18.83;;;;;;;;;;4997313;28;20262;-74
2024/01/13 01:19:10;;;;;;;33.37;16.67;;;;;;;;;;4992266;28;20188;-74
2024/01/13 01:21:36;;;;;;;34.00;19.87;;;;;;;;;;4992071;28;20258;-75
2024/01/13 01:24:01;;;;;;;31.03;16.90;;;;;;;;;;4998474;28;20182;-74
2024/01/13 01:26:26;;;;;;;30.87;16.40;;;;;;;;;;5019359;28;20183;-75
2024/01/13 01:28:51;;;;;;;33.27;19.90;;;;;;;;;;4993200;28;20187;-74
2024/01/13 01:31:16;;;;;;;26.83;15.50;;;;;;;;;;4993801;28;20184;-74
2024/01/13 01:33:42;;;;;;;33.07;17.87;;;;;;;;;;4991070;28;20206;-74
2024/01/13 01:36:07;;;;;;;27.10;13.17;;;;;;;;;;4992106;28;20192;-75
2024/01/13 01:38:32;;;;;;;24.30;13.73;;;;;;;;;;4993350;28;20196;-75
2024/01/13 01:40:58;;;;;;;23.93;13.00;;;;;;;;;;4992109;28;20187;-75
2024/01/13 01:43:23;;;;;;;23.47;12.23;;;;;;;;;;4991386;28;20192;-74
2024/01/13 01:45:50;;;;;;;32.20;15.47;;;;;;;;;;4996473;28;20183;-75
2024/01/13 01:48:15;;;;;;;28.10;16.90;;;;;;;;;;4992079;28;20184;-74
2024/01/13 01:50:40;;;;;;;32.13;16.20;;;;;;;;;;4994627;28;20243;-74
2024/01/13 01:53:06;;;;;;;34.03;18.73;;;;;;;;;;4994950;28;20234;-74
2024/01/13 01:55:31;;;;;;;30.50;15.93;;;;;;;;;;4989267;28;20222;-74
2024/01/13 01:57:58;;;;;;;33.40;19.77;;;;;;;;;;4993689;28;20259;-74
2024/01/13 02:00:23;;;;;;;26.57;15.37;;;;;;;;;;4996445;28;20178;-74
2024/01/13 02:02:48;;;;;;;31.83;17.93;;;;;;;;;;4994185;28;20176;-74
2024/01/13 02:05:14;;;;;;;29.40;15.63;;;;;;;;;;4991979;28;20180;-74
2024/01/13 02:07:39;;;;;;;22.07;12.57;;;;;;;;;;4994475;28;20176;-74
2024/01/13 02:10:04;;;;;;;23.40;13.77;;;;;;;;;;4988540;28;20353;-74
2024/01/13 02:12:30;;;;;;;17.83;10.23;;;;;;;;;;4992504;28;20177;-74
2024/01/13 02:14:55;;;;;;;17.60;10.37;;;;;;;;;;4994003;28;20191;-74
2024/01/13 02:17:22;;;;;;;21.13;11.70;;;;;;;;;;4991891;28;20292;-74
2024/01/13 02:19:47;;;;;;;22.83;13.10;;;;;;;;;;4992205;28;20179;-74
2024/01/13 02:22:12;;;;;;;23.53;11.33;;;;;;;;;;4997593;28;20176;-74
2024/01/13 02:24:37;;;;;;;26.83;13.33;;;;;;;;;;4990958;28;20204;-74
2024/01/13 02:27:03;;;;;;;22.27;13.00;;;;;;;;;;4990589;28;20243;-74
2024/01/13 02:29:28;;;;;;;24.67;12.80;;;;;;;;;;4998098;28;20183;-74
2024/01/13 02:31:53;;;;;;;25.67;12.13;;;;;;;;;;4990860;28;20219;-74
2024/01/13 02:34:18;;;;;;;18.90;11.90;;;;;;;;;;4992022;28;20176;-74
2024/01/13 02:36:43;;;;;;;26.47;11.77;;;;;;;;;;4991154;28;20176;-74
2024/01/13 02:39:08;;;;;;;22.77;11.83;;;;;;;;;;4992726;28;20183;-74
2024/01/13 02:41:34;;;;;;;20.90;12.13;;;;;;;;;;4988971;28;20179;-74
2024/01/13 02:43:59;;;;;;;26.20;13.23;;;;;;;;;;4992307;28;20180;-74
2024/01/13 02:46:24;;;;;;;22.87;11.80;;;;;;;;;;4998047;28;20172;-74
2024/01/13 02:48:51;;;;;;;26.33;14.13;;;;;;;;;;4995568;28;20227;-74
2024/01/13 02:51:17;;;;;;;28.43;14.40;;;;;;;;;;4993326;28;20692;-74
2024/01/13 02:53:42;;;;;;;32.50;14.60;;;;;;;;;;4985233;28;20204;-74
2024/01/13 02:56:08;;;;;;;23.67;13.17;;;;;;;;;;4999824;28;20184;-74
2024/01/13 02:58:33;;;;;;;26.63;13.63;;;;;;;;;;4991766;28;20251;-74
2024/01/13 03:00:58;;;;;;;30.70;14.27;;;;;;;;;;4988982;28;20180;-74
2024/01/13 03:03:23;;;;;;;23.20;11.87;;;;;;;;;;4991314;28;20183;-73
2024/01/13 03:05:49;;;;;;;22.50;13.80;;;;;;;;;;4990369;28;20168;-74
2024/01/13 03:08:14;;;;;;;24.57;10.73;;;;;;;;;;4997693;28;20302;-74
2024/01/13 03:10:39;;;;;;;22.13;12.40;;;;;;;;;;4988694;28;20191;-74
2024/01/13 03:13:12;;;;;;;21.90;11.70;;;;;;;;;;5063985;28;20554;-73
2024/01/13 03:15:37;;;;;;;27.50;15.13;;;;;;;;;;5060762;28;20178;-73
2024/01/13 03:18:02;;;;;;;26.23;14.23;;;;;;;;;;5063765;28;20216;-73
2024/01/13 03:20:27;;;;;;;26.03;14.10;;;;;;;;;;5060714;28;20188;-73
2024/01/13 03:22:53;;;;;;;27.47;13.63;;;;;;;;;;5054334;28;20269;-73
2024/01/13 03:25:18;;;;;;;27.90;16.07;;;;;;;;;;5062013;28;20173;-73
2024/01/13 03:27:43;;;;;;;26.43;14.50;;;;;;;;;;5085328;28;20285;-73
2024/01/13 03:30:09;;;;;;;22.97;13.10;;;;;;;;;;5064976;28;20259;-73
2024/01/13 03:32:34;;;;;;;21.00;10.93;;;;;;;;;;5060472;28;20283;-73
2024/01/13 03:34:59;;;;;;;25.90;14.67;;;;;;;;;;5055590;28;20170;-73
2024/01/13 03:37:24;;;;;;;20.57;12.23;;;;;;;;;;5065452;28;20181;-73
2024/01/13 03:39:50;;;;;;;24.77;13.57;;;;;;;;;;5058742;28;20173;-73
2024/01/13 03:42:15;;;;;;;24.87;13.53;;;;;;;;;;5061048;28;20184;-73
2024/01/13 03:44:40;;;;;;;24.13;12.23;;;;;;;;;;5055301;28;20182;-73
2024/01/13 03:47:05;;;;;;;20.83;11.40;;;;;;;;;;5089593;28;20243;-73
2024/01/13 03:49:31;;;;;;;17.73;10.57;;;;;;;;;;5054205;28;20248;-73
2024/01/13 03:51:56;;;;;;;17.23;8.43;;;;;;;;;;5047811;28;20201;-73
2024/01/13 03:54:21;;;;;;;19.53;8.93;;;;;;;;;;5057146;28;20175;-73
2024/01/13 03:56:47;;;;;;;16.90;8.63;;;;;;;;;;5053930;28;20181;-73
2024/01/13 03:59:14;;;;;;;13.97;8.63;;;;;;;;;;5051192;28;20166;-73
2024/01/13 04:01:40;;;;;;;17.47;10.57;;;;;;;;;;5050717;28;20182;-73
2024/01/13 04:04:05;;;;;;;14.87;8.60;;;;;;;;;;5045117;28;20182;-73
2024/01/13 04:06:31;;;;;;;16.70;9.47;;;;;;;;;;5051654;28;20178;-73
2024/01/13 04:08:56;;;;;;;18.63;9.53;;;;;;;;;;5053227;28;20224;-73
2024/01/13 04:11:21;;;;;;;13.30;6.13;;;;;;;;;;5045547;28;20242;-73
2024/01/13 04:13:46;;;;;;;15.77;8.10;;;;;;;;;;5049197;28;20241;-73
2024/01/13 04:16:12;;;;;;;12.00;6.73;;;;;;;;;;5047605;28;20201;-73
2024/01/13 04:18:38;;;;;;;14.17;7.57;;;;;;;;;;5048185;28;20178;-73
2024/01/13 04:21:03;;;;;;;14.17;7.57;;;;;;;;;;5049584;28;20182;-73
2024/01/13 04:23:28;;;;;;;14.60;8.53;;;;;;;;;;5037302;28;20265;-73
2024/01/13 04:25:53;;;;;;;13.20;7.33;;;;;;;;;;5031374;28;20290;-73
2024/01/13 04:28:19;;;;;;;12.93;6.87;;;;;;;;;;5039242;28;20200;-73
2024/01/13 04:30:44;;;;;;;14.33;8.23;;;;;;;;;;5033649;28;20270;-73
2024/01/13 04:33:09;;;;;;;15.63;7.00;;;;;;;;;;5038503;28;20226;-73
2024/01/13 04:35:34;;;;;;;17.73;8.37;;;;;;;;;;5037703;28;20198;-73
2024/01/13 04:38:00;;;;;;;17.23;7.87;;;;;;;;;;5035612;28;20265;-73
2024/01/13 04:40:25;;;;;;;14.50;7.33;;;;;;;;;;5038364;28;20171;-73
2024/01/13 04:42:50;;;;;;;18.17;8.93;;;;;;;;;;5034174;28;20170;-73
2024/01/13 04:45:16;;;;;;;11.93;6.27;;;;;;;;;;5034788;28;20393;-73
2024/01/13 04:47:41;;;;;;;12.20;7.13;;;;;;;;;;5035089;28;20174;-73
2024/01/13 04:50:06;;;;;;;15.50;7.93;;;;;;;;;;5033478;28;20236;-73
2024/01/13 04:52:31;;;;;;;12.73;7.37;;;;;;;;;;5037614;28;20198;-73
2024/01/13 04:54:57;;;;;;;15.60;7.83;;;;;;;;;;5038156;28;20176;-73
2024/01/13 04:57:22;;;;;;;18.80;7.57;;;;;;;;;;5037276;28;20174;-73
2024/01/13 04:59:47;;;;;;;18.23;8.43;;;;;;;;;;5035919;28;20182;-73
2024/01/13 05:02:12;;;;;;;13.83;7.83;;;;;;;;;;5037374;28;20202;-73
2024/01/13 05:04:39;;;;;;;12.03;7.13;;;;;;;;;;5037299;28;20175;-73
2024/01/13 05:07:04;;;;;;;13.47;7.07;;;;;;;;;;5031703;28;20192;-73
2024/01/13 05:09:29;;;;;;;14.63;7.17;;;;;;;;;;5035456;28;20181;-73
2024/01/13 05:11:54;;;;;;;10.63;6.13;;;;;;;;;;5032399;28;20372;-73
2024/01/13 05:14:19;;;;;;;15.80;7.73;;;;;;;;;;5049807;28;20221;-73
2024/01/13 05:16:45;;;;;;;10.90;6.67;;;;;;;;;;5032825;28;20417;-73
2024/01/13 05:19:10;;;;;;;12.20;7.13;;;;;;;;;;5033542;28;20186;-73
2024/01/13 05:21:35;;;;;;;11.60;6.20;;;;;;;;;;5031869;28;20259;-73
2024/01/13 05:24:00;;;;;;;13.30;7.67;;;;;;;;;;5030952;28;20494;-73
2024/01/13 05:26:26;;;;;;;9.07;5.37;;;;;;;;;;5034377;28;20191;-73
2024/01/13 05:28:51;;;;;;;11.50;6.93;;;;;;;;;;5030923;28;20179;-73
2024/01/13 05:31:16;;;;;;;9.43;5.60;;;;;;;;;;5034248;28;20259;-73
2024/01/13 05:33:41;;;;;;;11.30;6.30;;;;;;;;;;5037842;28;20170;-72
2024/01/13 05:36:07;;;;;;;12.60;6.10;;;;;;;;;;5031130;28;20185;-73
2024/01/13 05:38:32;;;;;;;8.00;4.80;;;;;;;;;;5037506;28;20175;-72
2024/01/13 05:40:57;;;;;;;6.93;4.17;;;;;;;;;;5034918;28;20171;-73
2024/01/13 05:43:22;;;;;;;7.73;5.00;;;;;;;;;;5031653;28;20179;-73
2024/01/13 05:45:47;;;;;;;9.10;5.97;;;;;;;;;;5045510;28;20231;-73
2024/01/13 05:48:13;;;;;;;8.90;4.80;;;;;;;;;;5037073;28;20484;-73
2024/01/13 05:50:38;;;;;;;6.77;4.50;;;;;;;;;;5033321;28;20195;-73
2024/01/13 05:53:03;;;;;;;7.33;4.57;;;;;;;;;;5031170;28;20199;-73
2024/01/13 05:55:28;;;;;;;9.80;5.50;;;;;;;;;;5036346;28;20178;-73
2024/01/13 05:57:53;;;;;;;3.20;2.27;;;;;;;;;;5031688;28;20175;-73
2024/01/13 06:00:19;;;;;;;10.93;3.83;;;;;;;;;;5033980;28;20429;-73
2024/01/13 06:02:44;;;;;;;8.03;4.60;;;;;;;;;;5034434;28;20186;-73
2024/01/13 06:05:09;;;;;;;6.27;4.10;;;;;;;;;;5038653;28;20194;-73
2024/01/13 06:07:35;;;;;;;5.63;3.27;;;;;;;;;;5031755;28;20236;-73
2024/01/13 06:10:00;;;;;;;0.73;0.57;;;;;;;;;;5035689;28;20185;-73
2024/01/13 06:12:27;;;;;;;3.50;2.90;;;;;;;;;;5030654;28;20214;-73
2024/01/13 06:14:52;;;;;;;4.00;2.80;;;;;;;;;;5029830;28;20258;-73
2024/01/13 06:17:17;;;;;;;6.10;3.17;;;;;;;;;;5029876;28;20274;-73
2024/01/13 06:19:43;;;;;;;5.73;3.83;;;;;;;;;;5038556;28;20177;-73
2024/01/13 06:22:09;;;;;;;10.10;3.80;;;;;;;;;;5034287;28;20230;-73
2024/01/13 06:24:34;;;;;;;4.20;3.00;;;;;;;;;;5031791;28;20187;-73
2024/01/13 06:26:59;;;;;;;11.07;5.97;;;;;;;;;;5038031;28;20185;-73
2024/01/13 06:29:24;;;;;;;8.37;4.60;;;;;;;;;;5035623;28;20194;-73
2024/01/13 06:31:50;;;;;;;7.90;4.60;;;;;;;;;;5033174;28;20198;-73
2024/01/13 06:34:15;;;;;;;9.27;4.40;;;;;;;;;;5031633;28;20171;-73
2024/01/13 06:36:40;;;;;;;9.43;4.57;;;;;;;;;;5033386;28;20216;-73
2024/01/13 06:39:05;;;;;;;3.90;2.87;;;;;;;;;;5032882;28;20186;-73
2024/01/13 06:41:31;;;;;;;3.97;3.30;;;;;;;;;;5033408;28;20179;-72
2024/01/13 06:43:56;;;;;;;16.20;6.30;;;;;;;;;;5034520;28;20189;-73
2024/01/13 06:46:21;;;;;;;9.77;4.20;;;;;;;;;;5031847;28;20187;-73
2024/01/13 06:48:46;;;;;;;2.83;2.30;;;;;;;;;;5034082;28;20178;-73
2024/01/13 06:51:12;;;;;;;6.97;3.93;;;;;;;;;;5029925;28;20287;-73
2024/01/13 06:53:38;;;;;;;5.20;3.47;;;;;;;;;;5032409;28;20175;-73
2024/01/13 06:56:03;;;;;;;4.03;3.33;;;;;;;;;;5034409;28;20189;-73
2024/01/13 06:58:28;;;;;;;6.00;3.50;;;;;;;;;;5033628;28;20170;-73
2024/01/13 07:00:53;;;;;;;4.77;3.00;;;;;;;;;;5032021;28;20189;-73
2024/01/13 07:03:19;;;;;;;7.97;3.97;;;;;;;;;;5037092;28;20208;-73
2024/01/13 07:05:44;;;;;;;7.17;4.57;;;;;;;;;;5037436;28;20187;-75
2024/01/13 07:08:09;;;;;;;30.57;6.27;;;;;;;;;;5041312;28;20181;-73
2024/01/13 07:10:34;;;;;;;6.17;3.87;;;;;;;;;;5035342;28;20179;-73
2024/01/13 07:13:00;;;;;;;18.47;5.93;;;;;;;;;;5033440;28;20268;-73
2024/01/13 07:15:25;;;;;;;16.07;5.83;;;;;;;;;;5033851;28;20178;-73
2024/01/13 07:17:51;;;;;;;13.23;4.87;;;;;;;;;;5035137;28;20174;-73
2024/01/13 07:20:16;;;;;;;18.50;6.60;;;;;;;;;;5040754;28;20185;-73
2024/01/13 07:22:42;;;;;;;16.50;7.53;;;;;;;;;;5036003;28;20182;-73
2024/01/13 07:25:07;;;;;;;16.80;7.47;;;;;;;;;;5031338;28;20214;-73
2024/01/13 07:27:32;;;;;;;13.37;7.17;;;;;;;;;;5031876;28;20209;-73
2024/01/13 07:30:01;;;;;;;15.53;7.90;;;;;;;;;;5028416;28;20179;-74
2024/01/13 07:32:26;;;;;;;19.63;8.03;;;;;;;;;;5035064;28;20198;-73
2024/01/13 07:34:52;;;;;;;17.47;7.53;;;;;;;;;;5035391;28;20229;-73
2024/01/13 07:37:17;;;;;;;18.13;7.47;;;;;;;;;;5032105;28;20174;-73
2024/01/13 07:39:45;;;;;;;15.30;7.80;;;;;;;;;;5040234;28;20182;-73
2024/01/13 07:42:10;;;;;;;25.00;9.47;;;;;;;;;;5042157;28;20463;-73
2024/01/13 07:44:36;;;;;;;19.73;7.90;;;;;;;;;;5033655;28;20179;-73
2024/01/13 07:47:03;;;;;;;17.60;7.50;;;;;;;;;;5034001;28;20204;-73
2024/01/13 07:49:28;;;;;;;13.77;6.37;;;;;;;;;;5030907;28;20207;-73
2024/01/13 07:51:54;;;;;;;15.37;7.97;;;;;;;;;;5030939;28;20203;-73
2024/01/13 07:54:19;;;;;;;13.00;5.77;;;;;;;;;;5029343;28;20179;-73
2024/01/13 07:56:45;;;;;;;18.73;7.80;;;;;;;;;;5032199;28;20206;-73
2024/01/13 07:59:10;;;;;;;17.37;6.93;;;;;;;;;;5033673;28;20224;-73
2024/01/13 08:01:35;;;;;;;16.63;7.23;;;;;;;;;;5038294;28;20178;-73
2024/01/13 08:04:00;;;;;;;11.03;6.17;;;;;;;;;;5035444;28;20192;-73
2024/01/13 08:06:25;;;;;;;16.27;7.20;;;;;;;;;;5035518;28;20281;-73
2024/01/13 08:08:51;;;;;;;11.83;6.60;;;;;;;;;;5048094;28;20228;-73
2024/01/13 08:11:16;;;;;;;31.30;8.37;;;;;;;;;;5035923;28;20229;-73
2024/01/13 08:13:41;;;;;;;13.53;6.30;;;;;;;;;;5040521;28;20174;-73
2024/01/13 08:16:06;;;;;;;19.00;8.60;;;;;;;;;;5036298;28;20270;-73
2024/01/13 08:18:32;;;;;;;28.30;14.20;;;;;;;;;;5035759;28;20271;-73
2024/01/13 08:20:57;;;;;;;14.03;8.63;;;;;;;;;;5041449;28;20204;-73
2024/01/13 08:23:22;;;;;;;15.83;7.33;;;;;;;;;;5039602;28;20178;-73
2024/01/13 08:25:48;;;;;;;11.07;5.17;;;;;;;;;;5038939;28;20182;-73
2024/01/13 08:28:13;;;;;;;13.10;6.77;;;;;;;;;;5034319;28;20178;-75
2024/01/13 08:30:38;;;;;;;9.73;5.97;;;;;;;;;;5038422;28;20179;-73
2024/01/13 08:33:04;;;;;;;10.50;6.07;;;;;;;;;;5040872;28;20209;-73
2024/01/13 08:35:30;;;;;;;8.93;6.10;;;;;;;;;;5040222;28;20174;-73
2024/01/13 08:37:56;;;;;;;17.43;7.83;;;;;;;;;;5032925;28;20170;-73
2024/01/13 08:40:21;;;;;;;13.90;7.63;;;;;;;;;;5037767;28;20181;-73
2024/01/13 08:42:49;;;;;;;10.20;6.37;;;;;;;;;;5046091;28;20167;-73
2024/01/13 08:45:14;;;;;;;11.57;6.30;;;;;;;;;;5040007;28;20197;-73
2024/01/13 08:47:39;;;;;;;13.47;6.23;;;;;;;;;;5038361;28;20174;-73
2024/01/13 08:50:05;;;;;;;16.20;8.70;;;;;;;;;;5045425;28;20232;-73
2024/01/13 08:52:30;;;;;;;13.47;7.50;;;;;;;;;;5044310;28;20198;-73
2024/01/13 08:54:55;;;;;;;9.60;6.33;;;;;;;;;;5046340;28;20174;-73
2024/01/13 08:57:20;;;;;;;17.17;8.53;;;;;;;;;;5042570;28;20244;-73
2024/01/13 08:59:45;;;;;;;9.50;6.03;;;;;;;;;;5039454;28;20186;-73
2024/01/13 09:02:10;;;;;;;9.47;6.07;;;;;;;;;;5035238;28;20179;-73
2024/01/13 09:04:36;;;;;;;13.87;6.63;;;;;;;;;;5036424;28;20185;-73
2024/01/13 09:07:01;;;;;;;14.93;7.97;;;;;;;;;;5035240;28;20214;-75
2024/01/13 09:09:28;;;;;;;15.70;9.00;;;;;;;;;;5040090;28;20186;-73
2024/01/13 09:11:53;;;;;;;15.37;9.30;;;;;;;;;;5039291;28;20314;-73
2024/01/13 09:14:19;;;;;;;11.80;6.33;;;;;;;;;;5040925;28;20277;-73
2024/01/13 09:16:44;;;;;;;12.23;6.90;;;;;;;;;;5045707;28;20219;-73
2024/01/13 09:19:09;;;;;;;10.60;6.00;;;;;;;;;;5036077;28;20182;-73
2024/01/13 09:21:34;;;;;;;15.27;7.43;;;;;;;;;;5041988;28;20250;-73
2024/01/13 09:24:00;;;;;;;15.30;8.87;;;;;;;;;;5042685;28;20364;-73
2024/01/13 09:26:25;;;;;;;20.50;8.90;;;;;;;;;;5038448;28;20183;-73
2024/01/13 09:28:51;;;;;;;15.63;7.77;;;;;;;;;;5034657;28;20186;-73
2024/01/13 09:31:16;;;;;;;15.03;7.17;;;;;;;;;;5041151;28;20175;-73
2024/01/13 09:33:41;;;;;;;8.63;5.03;;;;;;;;;;5029656;28;20185;-73
2024/01/13 09:36:06;;;;;;;15.17;6.60;;;;;;;;;;5037784;28;20313;-73
2024/01/13 09:38:32;;;;;;;10.53;6.97;;;;;;;;;;5039537;28;20174;-73
2024/01/13 09:41:00;;;;;;;5.97;4.33;;;;;;;;;;5036261;28;20189;-76
2024/01/13 09:43:34;;;;;;;11.73;6.37;;;;;;;;;;5038723;28;20181;-73
2024/01/13 09:46:00;;;;;;;8.70;5.03;;;;;;;;;;5035635;28;20255;-75
2024/01/13 09:48:26;;;;;;;12.10;7.40;;;;;;;;;;5038611;28;20178;-75
2024/01/13 09:50:54;;;;;;;15.37;8.30;;;;;;;;;;5033796;28;20198;-75
2024/01/13 09:53:29;;;;;;;22.17;9.30;;;;;;;;;;5037343;28;20341;-75
2024/01/13 09:56:03;;;;;;;11.37;6.40;;;;;;;;;;5039396;28;20177;-75
2024/01/13 09:58:28;;;;;;;16.70;5.93;;;;;;;;;;5034181;28;20189;-75
2024/01/13 10:00:55;;;;;;;10.17;5.87;;;;;;;;;;5038896;28;20175;-75
2024/01/13 10:03:20;;;;;;;7.93;5.17;;;;;;;;;;5035465;28;20218;-75
2024/01/13 10:05:46;;;;;;;8.50;5.63;;;;;;;;;;5037088;28;20206;-75
2024/01/13 10:08:11;;;;;;;9.50;5.57;;;;;;;;;;5034206;28;20195;-75
2024/01/13 10:10:37;;;;;;;9.87;5.97;;;;;;;;;;5038647;28;20316;-75
2024/01/13 10:13:05;;;;;;;13.43;8.53;;;;;;;;;;5036432;28;20230;-73
2024/01/13 10:15:33;;;;;;;11.47;6.50;;;;;;;;;;5037117;28;20178;-75
2024/01/13 10:17:59;;;;;;;2.20;2.00;;;;;;;;;;5030844;28;20181;-75
2024/01/13 10:20:24;;;;;;;8.13;5.00;;;;;;;;;;5032889;28;20183;-75
2024/01/13 10:22:49;;;;;;;9.57;5.43;;;;;;;;;;5033933;28;20187;-75
2024/01/13 10:25:15;;;;;;;3.57;2.57;;;;;;;;;;5030176;28;20221;-74
2024/01/13 10:27:40;;;;;;;23.77;11.80;;;;;;;;;;5040377;28;20202;-75
2024/01/13 10:30:07;;;;;;;5.43;4.40;;;;;;;;;;5044262;28;20243;-75
2024/01/13 10:32:32;;;;;;;9.70;5.23;;;;;;;;;;5032682;28;20256;-75
2024/01/13 10:34:58;;;;;;;5.80;4.07;;;;;;;;;;5036070;28;20175;-75
2024/01/13 10:37:25;;;;;;;3.83;2.80;;;;;;;;;;5042690;28;20182;-75
2024/01/13 10:39:50;;;;;;;7.90;3.63;;;;;;;;;;5041270;28;20177;-75
2024/01/13 10:42:18;;;;;;;5.60;3.67;;;;;;;;;;5031369;28;20186;-75
2024/01/13 10:44:46;;;;;;;4.77;2.73;;;;;;;;;;5041373;28;20246;-75
2024/01/13 10:47:15;;;;;;;11.40;7.40;;;;;;;;;;5037898;28;20213;-75
2024/01/13 10:49:41;;;;;;;10.73;7.63;;;;;;;;;;5040463;28;20195;-75
2024/01/13 10:52:06;;;;;;;9.90;6.50;;;;;;;;;;5042486;28;20540;-75
2024/01/13 10:54:33;;;;;;;8.87;6.50;;;;;;;;;;5040960;28;20202;-75
2024/01/13 10:56:58;;;;;;;9.10;5.30;;;;;;;;;;5039111;28;20179;-75
2024/01/13 10:59:26;;;;;;;12.30;8.20;;;;;;;;;;5030179;28;20170;-75
2024/01/13 11:01:53;;;;;;;11.97;6.27;;;;;;;;;;5039054;28;20185;-75
2024/01/13 11:04:19;;;;;;;12.40;6.63;;;;;;;;;;5030272;28;20183;-75
2024/01/13 11:06:44;;;;;;;8.50;5.73;;;;;;;;;;5036044;28;20191;-75
2024/01/13 11:09:11;;;;;;;8.00;5.57;;;;;;;;;;5031006;28;20178;-74
2024/01/13 11:11:40;;;;;;;7.87;6.20;;;;;;;;;;5034474;28;20235;-75
2024/01/13 11:14:07;;;;;;;10.00;7.20;;;;;;;;;;5034283;28;20183;-75
2024/01/13 11:16:33;;;;;;;7.37;5.47;;;;;;;;;;5037266;28;20167;-75
2024/01/13 11:19:00;;;;;;;9.97;5.77;;;;;;;;;;5036487;28;20178;-75
2024/01/13 11:21:30;;;;;;;8.07;6.17;;;;;;;;;;5033198;28;20255;-75
2024/01/13 11:23:55;;;;;;;8.70;5.40;;;;;;;;;;5034670;28;20179;-75
2024/01/13 11:26:42;;;;;;;9.50;5.50;;;;;;;;;;5031432;28;20191;-75
2024/01/13 11:29:16;;;;;;;9.37;6.90;;;;;;;;;;5029446;28;20204;-75
2024/01/13 11:31:42;;;;;;;10.70;6.07;;;;;;;;;;5040334;28;20334;-75
2024/01/13 11:34:11;;;;;;;11.80;7.73;;;;;;;;;;5040394;28;20202;-75
2024/01/13 11:36:40;;;;;;;8.83;6.77;;;;;;;;;;5042250;28;20249;-76
2024/01/13 11:39:06;;;;;;;9.17;5.80;;;;;;;;;;5041944;28;20182;-76
2024/01/13 11:41:48;;;;;;;11.57;5.80;;;;;;;;;;5037776;28;20245;-75
2024/01/13 11:44:21;;;;;;;9.50;5.80;;;;;;;;;;5043842;28;20217;-75
2024/01/13 11:46:56;;;;;;;16.23;10.63;;;;;;;;;;5033561;28;20179;-75
2024/01/13 11:49:31;;;;;;;11.53;6.80;;;;;;;;;;5041346;28;20277;-75
2024/01/13 11:51:57;;;;;;;6.33;4.77;;;;;;;;;;5034818;28;20197;-75
2024/01/13 11:54:23;;;;;;;8.87;6.40;;;;;;;;;;5038310;28;20202;-75
2024/01/13 11:56:49;;;;;;;13.90;8.80;;;;;;;;;;5040773;28;20174;-75
2024/01/13 11:59:17;;;;;;;8.13;5.37;;;;;;;;;;5039390;28;20178;-75
2024/01/13 12:01:43;;;;;;;10.17;5.60;;;;;;;;;;5042213;28;20189;-75
2024/01/13 12:04:09;;;;;;;8.90;5.23;;;;;;;;;;5036717;28;20179;-75
2024/01/13 12:06:34;;;;;;;8.07;5.80;;;;;;;;;;5034359;28;20186;-75
2024/01/13 12:08:59;;;;;;;7.90;5.53;;;;;;;;;;5042746;28;20174;-75
2024/01/13 12:11:25;;;;;;;8.33;5.70;;;;;;;;;;5040540;28;20373;-75
2024/01/13 12:13:51;;;;;;;10.53;7.57;;;;;;;;;;5037041;28;20168;-75
2024/01/13 12:16:16;;;;;;;10.20;6.70;;;;;;;;;;5034155;28;20184;-75
2024/01/13 12:18:45;;;;;;;9.97;6.53;;;;;;;;;;5035302;28;20185;-75
2024/01/13 12:21:10;;;;;;;10.17;5.87;;;;;;;;;;5032796;28;20215;-75
2024/01/13 12:23:36;;;;;;;10.77;6.37;;;;;;;;;;5040056;28;20182;-75
2024/01/13 12:26:01;;;;;;;9.70;5.93;;;;;;;;;;5036677;28;20175;-75
2024/01/13 12:28:27;;;;;;;10.10;6.10;;;;;;;;;;5045157;28;20230;-75
2024/01/13 12:30:53;;;;;;;8.97;5.57;;;;;;;;;;5038913;28;20172;-75
2024/01/13 12:33:18;;;;;;;8.30;5.03;;;;;;;;;;5036688;28;20202;-75
2024/01/13 12:35:43;;;;;;;9.07;5.33;;;;;;;;;;5032584;28;20187;-75
2024/01/13 12:38:09;;;;;;;8.53;5.40;;;;;;;;;;5032697;28;20241;-75
2024/01/13 12:40:35;;;;;;;9.50;5.60;;;;;;;;;;5040499;28;20305;-75
2024/01/13 12:43:00;;;;;;;7.77;5.30;;;;;;;;;;5041772;28;20202;-75
2024/01/13 12:45:26;;;;;;;10.03;7.03;;;;;;;;;;5035036;28;20178;-75
2024/01/13 12:47:52;;;;;;;8.37;5.30;;;;;;;;;;5033354;28;20213;-75
2024/01/13 12:50:18;;;;;;;7.47;5.03;;;;;;;;;;5037105;28;20207;-75
2024/01/13 12:52:44;;;;;;;10.33;6.13;;;;;;;;;;5034415;28;20220;-75
2024/01/13 12:55:09;;;;;;;8.17;5.03;;;;;;;;;;5033936;28;20178;-75
2024/01/13 12:57:34;;;;;;;8.10;4.87;;;;;;;;;;5039931;28;20186;-75
2024/01/13 13:00:00;;;;;;;8.33;5.67;;;;;;;;;;5031806;28;20172;-75
2024/01/13 13:02:26;;;;;;;8.47;4.87;;;;;;;;;;5037470;28;20217;-74
2024/01/13 13:04:51;;;;;;;7.23;4.47;;;;;;;;;;5037963;28;20184;-74
2024/01/13 13:07:16;;;;;;;14.13;8.47;;;;;;;;;;5035412;28;20191;-75
2024/01/13 13:09:42;;;;;;;9.07;5.97;;;;;;;;;;5032064;28;20210;-75
2024/01/13 13:12:07;;;;;;;9.57;6.30;;;;;;;;;;5038932;28;20259;-75
2024/01/13 13:14:33;;;;;;;7.87;5.57;;;;;;;;;;5030673;28;20180;-74
2024/01/13 13:16:58;;;;;;;9.60;5.40;;;;;;;;;;5033044;28;20172;-75
2024/01/13 13:19:25;;;;;;;6.57;5.00;;;;;;;;;;5034155;28;20182;-74
2024/01/13 13:21:50;;;;;;;10.67;6.70;;;;;;;;;;5031047;28;20189;-74
2024/01/13 13:24:15;;;;;;;11.07;7.13;;;;;;;;;;5032426;28;20188;-74
2024/01/13 13:26:41;;;;;;;4.10;3.13;;;;;;;;;;5040437;28;20182;-74
2024/01/13 13:29:06;;;;;;;9.03;5.10;;;;;;;;;;5042659;28;20215;-74
2024/01/13 13:31:32;;;;;;;9.77;5.67;;;;;;;;;;5039336;28;20195;-75
2024/01/13 13:33:57;;;;;;;10.53;7.63;;;;;;;;;;5034865;28;20204;-74
2024/01/13 13:36:22;;;;;;;5.57;2.67;;;;;;;;;;5033669;28;20246;-75
2024/01/13 13:38:47;;;;;;;6.33;3.83;;;;;;;;;;5045415;28;20220;-75
2024/01/13 13:41:13;;;;;;;5.97;3.67;;;;;;;;;;5032165;28;20187;-75
2024/01/13 13:43:38;;;;;;;6.93;4.40;;;;;;;;;;5032686;28;20211;-75
2024/01/13 13:46:04;;;;;;;11.23;6.63;;;;;;;;;;5030483;28;20245;-75
2024/01/13 13:48:33;;;;;;;9.97;6.57;;;;;;;;;;5036470;28;20205;-75
2024/01/13 13:50:58;;;;;;;11.83;8.10;;;;;;;;;;5031124;28;20220;-75
2024/01/13 13:53:23;;;;;;;8.03;5.30;;;;;;;;;;5031318;28;20227;-75
2024/01/13 13:55:48;;;;;;;7.93;5.83;;;;;;;;;;5029210;28;20248;-75
2024/01/13 13:58:13;;;;;;;7.83;5.43;;;;;;;;;;5036532;28;20202;-75
2024/01/13 14:00:39;;;;;;;9.77;6.33;;;;;;;;;;5031195;28;20264;-75
2024/01/13 14:03:04;;;;;;;8.33;5.43;;;;;;;;;;5029812;28;20180;-75
2024/01/13 14:05:29;;;;;;;8.30;5.57;;;;;;;;;;5045072;28;20185;-75
2024/01/13 14:07:55;;;;;;;7.97;5.97;;;;;;;;;;5031919;28;20233;-75
2024/01/13 14:10:21;;;;;;;10.30;5.53;;;;;;;;;;5029231;28;20182;-75
2024/01/13 14:12:46;;;;;;;5.60;4.03;;;;;;;;;;5029876;28;20227;-75
2024/01/13 14:15:11;;;;;;;10.10;5.83;;;;;;;;;;5035566;28;20241;-75
2024/01/13 14:17:37;;;;;;;10.77;6.20;;;;;;;;;;5033008;28;20171;-75
2024/01/13 14:20:02;;;;;;;9.60;6.00;;;;;;;;;;5035977;28;20206;-75
2024/01/13 14:22:28;;;;;;;11.50;7.67;;;;;;;;;;5034556;28;20222;-75